Time;durP1;ratioP1;P1;durP2;ratioP2;P2;SDS_P1;SDS_P2;PMS_P1;PMS_P2;Temp;Humidity;BMP_temperature;BMP_pressure;BME280_temperature;BME280_humidity;BME280_pressure;Samples;Min_cycle;Max_cycle;Signal;HPM_P1;HPM_P2
2023/12/19 00:00:06;;;;;;;22.10;9.23;;;-0.40;99.90;;;;;;5009319;28;20038;-86
2023/12/19 00:02:33;;;;;;;16.53;8.47;;;-0.40;99.90;;;;;;5009121;28;20045;-88
2023/12/19 00:04:59;;;;;;;21.57;9.97;;;-0.40;99.90;;;;;;5007959;28;20156;-85
2023/12/19 00:07:24;;;;;;;20.93;9.10;;;-0.40;99.90;;;;;;5006990;28;20121;-85
2023/12/19 00:09:50;;;;;;;15.57;7.70;;;-0.40;99.90;;;;;;5009519;28;20030;-86
2023/12/19 00:12:16;;;;;;;10.43;5.90;;;-0.50;99.90;;;;;;5008254;28;20034;-86
2023/12/19 00:14:42;;;;;;;7.37;5.33;;;-0.50;99.90;;;;;;5007913;28;20037;-87
2023/12/19 00:17:07;;;;;;;7.77;4.53;;;-0.50;99.90;;;;;;5006867;28;20044;-86
2023/12/19 00:19:33;;;;;;;7.10;4.93;;;-0.50;99.90;;;;;;5007704;28;20030;-89
2023/12/19 00:21:58;;;;;;;10.73;5.13;;;-0.60;99.90;;;;;;5007540;28;20037;-86
2023/12/19 00:24:23;;;;;;;7.17;5.03;;;-0.60;99.90;;;;;;4991351;28;20519;-85
2023/12/19 00:26:49;;;;;;;6.70;4.63;;;-0.60;99.90;;;;;;5008405;28;20045;-85
2023/12/19 00:29:15;;;;;;;9.40;5.40;;;-0.60;99.90;;;;;;5008042;28;20037;-85
2023/12/19 00:31:40;;;;;;;13.63;7.47;;;-0.60;99.90;;;;;;5007494;28;20046;-87
2023/12/19 00:34:06;;;;;;;8.40;5.50;;;-0.60;99.90;;;;;;5009200;28;20026;-86
2023/12/19 00:36:31;;;;;;;7.23;5.40;;;-0.70;99.90;;;;;;5007658;28;20034;-87
2023/12/19 00:38:57;;;;;;;10.97;6.93;;;-0.70;99.90;;;;;;5008502;28;20025;-85
2023/12/19 00:41:22;;;;;;;15.20;6.70;;;-0.70;99.90;;;;;;5007407;28;20097;-87
2023/12/19 00:43:48;;;;;;;10.47;6.03;;;-0.70;99.90;;;;;;5006981;28;20029;-87
2023/12/19 00:46:13;;;;;;;7.47;5.23;;;-0.80;99.90;;;;;;5008339;28;20055;-88
2023/12/19 00:48:39;;;;;;;9.37;6.40;;;-0.80;99.90;;;;;;5005598;28;20125;-85
2023/12/19 00:51:11;;;;;;;9.33;5.87;;;-0.80;99.90;;;;;;5004515;28;20161;-86
2023/12/19 00:53:37;;;;;;;10.50;5.53;;;-0.80;99.90;;;;;;5006577;28;20544;-86
2023/12/19 00:56:07;;;;;;;7.97;5.50;;;-0.80;99.90;;;;;;5006829;28;20121;-85
2023/12/19 00:58:33;;;;;;;10.70;5.20;;;-0.80;99.90;;;;;;5006715;28;20030;-86
2023/12/19 01:00:58;;;;;;;8.73;5.57;;;-0.90;99.90;;;;;;5004023;28;20041;-86
2023/12/19 01:03:24;;;;;;;8.90;5.57;;;-0.80;99.90;;;;;;5011708;28;20027;-85
2023/12/19 01:05:49;;;;;;;11.13;5.83;;;-0.80;99.90;;;;;;5004954;28;20496;-89
2023/12/19 01:08:15;;;;;;;8.13;5.43;;;-0.80;99.90;;;;;;5009723;28;20036;-85
2023/12/19 01:10:41;;;;;;;12.67;5.77;;;-0.80;99.90;;;;;;4994093;28;20105;-86
2023/12/19 01:13:06;;;;;;;9.47;5.83;;;-0.80;99.90;;;;;;5011534;28;20030;-87
2023/12/19 01:15:32;;;;;;;7.50;4.73;;;-0.80;99.90;;;;;;5007905;28;20056;-86
2023/12/19 01:17:58;;;;;;;10.33;5.77;;;-0.80;99.90;;;;;;5007816;28;20038;-87
2023/12/19 01:20:23;;;;;;;9.20;5.37;;;-0.80;99.90;;;;;;5008272;28;20049;-85
2023/12/19 01:22:49;;;;;;;9.10;5.80;;;-0.90;99.90;;;;;;5006836;28;20441;-87
2023/12/19 01:25:14;;;;;;;9.43;5.37;;;-0.80;99.90;;;;;;5008364;28;20792;-87
2023/12/19 01:27:40;;;;;;;7.63;5.30;;;-0.80;99.90;;;;;;5006870;28;20026;-86
2023/12/19 01:30:06;;;;;;;11.13;5.73;;;-0.80;99.90;;;;;;5007992;28;20098;-88
2023/12/19 01:32:32;;;;;;;7.17;5.10;;;-0.80;99.90;;;;;;5006306;28;20042;-85
2023/12/19 01:34:57;;;;;;;8.53;5.20;;;-0.80;99.90;;;;;;5008021;28;20071;-85
2023/12/19 01:37:23;;;;;;;8.33;5.10;;;-0.80;99.90;;;;;;4987591;28;20040;-86
2023/12/19 01:39:48;;;;;;;9.43;5.30;;;-0.80;99.90;;;;;;5006924;28;20094;-86
2023/12/19 01:42:14;;;;;;;10.13;5.07;;;-0.80;99.90;;;;;;5009297;28;20334;-85
2023/12/19 01:44:39;;;;;;;8.10;4.90;;;-0.90;99.90;;;;;;5013086;28;20052;-86
2023/12/19 01:47:05;;;;;;;7.70;4.87;;;-0.90;99.90;;;;;;5011403;28;20519;-85
2023/12/19 01:49:31;;;;;;;8.10;5.23;;;-0.90;99.90;;;;;;5013469;28;20038;-85
2023/12/19 01:51:57;;;;;;;7.67;4.80;;;-0.90;99.90;;;;;;5011142;28;20037;-86
2023/12/19 01:54:23;;;;;;;7.27;5.17;;;-1.00;99.90;;;;;;5011880;28;20089;-85
2023/12/19 01:56:48;;;;;;;7.63;4.50;;;-1.00;99.90;;;;;;5011200;28;20030;-86
2023/12/19 01:59:15;;;;;;;6.33;4.30;;;-1.00;99.90;;;;;;5010672;28;20029;-85
2023/12/19 02:01:41;;;;;;;7.47;4.37;;;-1.00;99.90;;;;;;5010434;28;20539;-86
2023/12/19 02:04:09;;;;;;;7.43;4.30;;;-1.00;99.90;;;;;;5010332;28;20038;-86
2023/12/19 02:06:35;;;;;;;7.30;4.73;;;-0.90;99.90;;;;;;5009662;28;20114;-85
2023/12/19 02:09:01;;;;;;;8.67;4.70;;;-0.90;99.90;;;;;;5010186;28;20164;-88
2023/12/19 02:11:28;;;;;;;6.57;3.80;;;-0.90;99.90;;;;;;5010976;28;20033;-87
2023/12/19 02:13:56;;;;;;;6.43;4.53;;;-0.90;99.90;;;;;;5012117;28;20030;-86
2023/12/19 02:16:22;;;;;;;6.70;4.23;;;-0.90;99.90;;;;;;5011592;28;20049;-85
2023/12/19 02:19:03;;;;;;;9.43;4.50;;;-0.90;99.90;;;;;;5011288;28;20040;-87
2023/12/19 02:21:29;;;;;;;7.80;4.33;;;-0.90;99.90;;;;;;5010895;28;20059;-86
2023/12/19 02:23:55;;;;;;;6.77;4.43;;;-0.90;99.90;;;;;;5009986;28;20149;-85
2023/12/19 02:26:22;;;;;;;7.33;4.30;;;-0.90;99.90;;;;;;5008985;28;20061;-85
2023/12/19 02:28:52;;;;;;;6.93;4.47;;;-0.90;99.90;;;;;;5010073;28;20188;-87
2023/12/19 02:31:18;;;;;;;6.90;4.47;;;-0.90;99.90;;;;;;5010009;28;20457;-87
2023/12/19 02:33:44;;;;;;;7.47;3.93;;;-1.00;99.90;;;;;;5010189;28;20168;-85
2023/12/19 02:36:09;;;;;;;7.03;4.00;;;-1.00;99.90;;;;;;5008535;28;20058;-86
2023/12/19 02:38:35;;;;;;;7.00;4.60;;;-1.00;99.90;;;;;;5012443;28;20038;-86
2023/12/19 02:41:00;;;;;;;7.20;4.20;;;-1.00;99.90;;;;;;5010613;28;20039;-87
2023/12/19 02:43:26;;;;;;;6.17;4.33;;;-1.00;99.90;;;;;;5011687;28;20033;-85
2023/12/19 02:45:51;;;;;;;6.87;4.40;;;-1.00;99.90;;;;;;5008978;28;20029;-85
2023/12/19 02:48:17;;;;;;;6.83;4.27;;;-1.00;99.90;;;;;;5008248;28;20030;-85
2023/12/19 02:50:42;;;;;;;6.60;4.30;;;-1.10;99.90;;;;;;5009148;28;20060;-85
2023/12/19 02:53:08;;;;;;;7.43;4.13;;;-1.10;99.90;;;;;;5006058;28;20038;-87
2023/12/19 02:55:33;;;;;;;7.47;4.33;;;-1.10;99.90;;;;;;5009717;28;20033;-84
2023/12/19 02:57:59;;;;;;;7.40;4.63;;;-1.10;99.90;;;;;;5008051;28;20037;-88
2023/12/19 03:00:24;;;;;;;6.53;4.53;;;-1.20;99.90;;;;;;4990947;28;20034;-86
2023/12/19 03:02:50;;;;;;;9.87;4.90;;;-1.20;99.90;;;;;;5009378;28;20117;-88
2023/12/19 03:05:17;;;;;;;7.50;4.60;;;-1.20;99.90;;;;;;5008050;28;20030;-87
2023/12/19 03:07:43;;;;;;;6.67;4.30;;;-1.30;99.90;;;;;;5009081;28;20034;-85
2023/12/19 03:10:09;;;;;;;6.77;4.27;;;-1.30;99.90;;;;;;5007458;28;20085;-87
2023/12/19 03:12:35;;;;;;;6.63;4.03;;;-1.30;99.90;;;;;;5007546;28;20087;-88
2023/12/19 03:15:02;;;;;;;6.10;4.10;;;-1.30;99.90;;;;;;5011549;28;20033;-91
2023/12/19 03:17:27;;;;;;;6.80;4.77;;;-1.30;99.90;;;;;;5008870;28;20033;-87
2023/12/19 03:19:53;;;;;;;8.50;4.73;;;-1.30;99.90;;;;;;5019128;28;20034;-85
2023/12/19 03:22:18;;;;;;;6.07;4.17;;;-1.30;99.90;;;;;;5024906;28;20033;-87
2023/12/19 03:24:45;;;;;;;8.20;5.03;;;-1.40;99.90;;;;;;4996917;28;20038;-85
2023/12/19 03:27:11;;;;;;;6.93;4.43;;;-1.40;99.90;;;;;;5010035;28;20019;-87
2023/12/19 03:29:36;;;;;;;8.33;5.27;;;-1.40;99.90;;;;;;5008970;28;20052;-87
2023/12/19 03:32:02;;;;;;;7.00;4.30;;;-1.40;99.90;;;;;;5009970;28;20131;-85
2023/12/19 03:34:28;;;;;;;13.13;4.80;;;-1.40;99.90;;;;;;5011062;28;20102;-85
2023/12/19 03:36:54;;;;;;;8.83;4.13;;;-1.40;99.90;;;;;;5010383;28;20081;-86
2023/12/19 03:39:19;;;;;;;6.20;4.10;;;-1.40;99.90;;;;;;4991379;28;20029;-86
2023/12/19 03:41:45;;;;;;;8.00;4.77;;;-1.40;99.90;;;;;;5009249;28;20044;-87
2023/12/19 03:44:10;;;;;;;8.10;5.13;;;-1.40;99.90;;;;;;5008400;28;20073;-87
2023/12/19 03:46:36;;;;;;;9.27;5.30;;;-1.40;99.90;;;;;;5007806;28;20072;-85
2023/12/19 03:49:02;;;;;;;9.97;6.23;;;-1.40;99.90;;;;;;5011637;28;20129;-86
2023/12/19 03:51:27;;;;;;;12.17;6.80;;;-1.40;99.90;;;;;;5011145;28;20063;-88
2023/12/19 03:53:53;;;;;;;12.73;7.00;;;-1.50;99.90;;;;;;5011408;28;20025;-87
2023/12/19 03:56:19;;;;;;;12.63;7.53;;;-1.50;99.90;;;;;;5014386;28;21144;-89
2023/12/19 03:58:45;;;;;;;16.53;8.37;;;-1.50;99.90;;;;;;5015402;28;20295;-89
2023/12/19 04:01:12;;;;;;;12.97;7.20;;;-1.50;99.90;;;;;;5014758;28;20098;-88
2023/12/19 04:03:38;;;;;;;12.57;6.83;;;-1.50;99.90;;;;;;5014490;28;20038;-87
2023/12/19 04:06:04;;;;;;;13.10;7.03;;;-1.60;99.90;;;;;;5013932;28;21211;-88
2023/12/19 04:08:29;;;;;;;12.77;6.77;;;-1.60;99.90;;;;;;5013461;28;20522;-87
2023/12/19 04:10:55;;;;;;;11.77;6.43;;;-1.60;99.90;;;;;;5014944;28;20404;-89
2023/12/19 04:13:20;;;;;;;12.33;7.10;;;-1.60;99.90;;;;;;5000871;28;20037;-88
2023/12/19 04:15:46;;;;;;;12.97;7.27;;;-1.60;99.90;;;;;;5009779;28;21089;-86
2023/12/19 04:18:14;;;;;;;11.63;6.77;;;-1.60;99.90;;;;;;4997504;28;20838;-85
2023/12/19 04:20:39;;;;;;;14.23;7.50;;;-1.60;99.90;;;;;;5010632;28;20030;-88
2023/12/19 04:23:05;;;;;;;12.83;7.00;;;-1.60;99.90;;;;;;5009268;28;20141;-87
2023/12/19 04:25:30;;;;;;;14.77;7.77;;;-1.70;99.90;;;;;;5008490;28;20034;-85
2023/12/19 04:27:56;;;;;;;11.00;7.10;;;-1.70;99.90;;;;;;4990460;28;20072;-86
2023/12/19 04:30:21;;;;;;;16.33;9.53;;;-1.70;99.90;;;;;;5007901;28;20713;-87
2023/12/19 04:32:47;;;;;;;14.80;8.17;;;-1.70;99.90;;;;;;5008114;28;20872;-86
2023/12/19 04:35:12;;;;;;;13.53;8.40;;;-1.70;99.90;;;;;;5009272;28;20045;-86
2023/12/19 04:37:38;;;;;;;12.17;7.30;;;-1.70;99.90;;;;;;5009220;28;20026;-86
2023/12/19 04:40:04;;;;;;;12.20;6.47;;;-1.70;99.90;;;;;;5009206;28;21242;-85
2023/12/19 04:42:30;;;;;;;10.17;6.10;;;-1.70;99.90;;;;;;5009777;28;20037;-87
2023/12/19 04:44:55;;;;;;;9.87;6.00;;;-1.70;99.90;;;;;;5009123;28;20058;-87
2023/12/19 04:47:21;;;;;;;8.30;5.17;;;-1.70;99.90;;;;;;5008961;28;20030;-85
2023/12/19 04:49:46;;;;;;;11.67;4.90;;;-1.70;99.90;;;;;;5007387;28;20030;-86
2023/12/19 04:52:12;;;;;;;8.53;5.00;;;-1.70;99.90;;;;;;5007852;28;20034;-87
2023/12/19 04:54:37;;;;;;;8.07;4.87;;;-1.80;99.90;;;;;;5008502;28;20096;-88
2023/12/19 04:57:03;;;;;;;6.57;4.17;;;-1.70;99.90;;;;;;5008407;28;20050;-86
2023/12/19 04:59:30;;;;;;;9.13;5.50;;;-1.70;99.90;;;;;;5009008;28;20030;-86
2023/12/19 05:01:56;;;;;;;7.00;4.60;;;-1.70;99.90;;;;;;5008671;28;20041;-86
2023/12/19 05:04:22;;;;;;;6.17;4.03;;;-1.80;99.90;;;;;;5008407;28;20018;-87
2023/12/19 05:06:47;;;;;;;6.40;3.53;;;-1.80;99.90;;;;;;5008380;28;20049;-88
2023/12/19 05:09:13;;;;;;;9.83;4.20;;;-1.70;99.90;;;;;;5009907;28;20508;-85
2023/12/19 05:11:42;;;;;;;5.00;3.33;;;-1.70;99.90;;;;;;5007147;28;20562;-84
2023/12/19 05:14:08;;;;;;;6.40;2.97;;;-1.70;99.90;;;;;;5008366;28;20085;-88
2023/12/19 05:16:33;;;;;;;5.33;3.17;;;-1.70;99.90;;;;;;5005580;28;20052;-91
2023/12/19 05:18:59;;;;;;;8.80;3.60;;;-1.70;99.90;;;;;;5004483;28;20133;-84
2023/12/19 05:21:24;;;;;;;5.33;3.47;;;-1.70;99.90;;;;;;4988819;28;20057;-85
2023/12/19 05:23:50;;;;;;;4.33;2.90;;;-1.70;99.90;;;;;;5006603;28;20783;-85
2023/12/19 05:26:15;;;;;;;6.13;3.37;;;-1.70;99.90;;;;;;5003268;28;20038;-86
2023/12/19 05:28:41;;;;;;;5.67;3.50;;;-1.70;99.90;;;;;;5005981;28;20040;-85
2023/12/19 05:31:09;;;;;;;4.87;2.50;;;-1.70;99.90;;;;;;5005143;28;20433;-85
2023/12/19 05:33:35;;;;;;;5.10;3.13;;;-1.70;99.90;;;;;;5004452;28;20026;-90
2023/12/19 05:36:00;;;;;;;5.67;3.27;;;-1.60;99.90;;;;;;5007827;28;20167;-85
2023/12/19 05:38:26;;;;;;;5.80;3.37;;;-1.60;99.90;;;;;;5005338;28;20122;-85
2023/12/19 05:40:56;;;;;;;7.37;4.37;;;-1.60;99.90;;;;;;5006470;28;20042;-86
2023/12/19 05:43:22;;;;;;;7.40;4.53;;;-1.60;99.90;;;;;;5008803;28;20030;-85
2023/12/19 05:45:47;;;;;;;7.13;3.60;;;-1.60;99.90;;;;;;5003215;28;20079;-89
2023/12/19 05:48:13;;;;;;;6.90;4.30;;;-1.70;99.90;;;;;;5007082;28;20050;-87
2023/12/19 05:50:39;;;;;;;6.83;3.77;;;-1.70;99.90;;;;;;5004305;28;20030;-85
2023/12/19 05:53:04;;;;;;;7.77;4.43;;;-1.70;99.90;;;;;;5006514;28;20026;-85
2023/12/19 05:55:30;;;;;;;9.87;5.17;;;-1.70;99.90;;;;;;5001272;28;20030;-87
2023/12/19 05:57:55;;;;;;;7.33;4.87;;;-1.70;99.90;;;;;;5005191;28;20033;-87
2023/12/19 06:00:21;;;;;;;11.40;6.30;;;-1.70;99.90;;;;;;5005921;28;20053;-86
2023/12/19 06:02:50;;;;;;;9.33;4.30;;;-1.70;99.90;;;;;;5004449;28;20038;-87
2023/12/19 06:05:16;;;;;;;9.20;4.20;;;-1.70;99.90;;;;;;5003644;28;20071;-85
2023/12/19 06:07:42;;;;;;;8.17;4.23;;;-1.80;99.90;;;;;;5004922;28;20766;-87
2023/12/19 06:10:09;;;;;;;9.27;4.53;;;-1.70;99.90;;;;;;4987120;28;20025;-85
2023/12/19 06:12:37;;;;;;;9.40;4.67;;;-1.70;99.90;;;;;;5003377;28;20034;-86
2023/12/19 06:15:08;;;;;;;8.47;4.93;;;-1.70;99.90;;;;;;5003479;28;20117;-86
2023/12/19 06:17:34;;;;;;;9.90;5.40;;;-1.70;99.90;;;;;;5006034;28;20529;-88
2023/12/19 06:20:00;;;;;;;12.37;5.87;;;-1.70;99.90;;;;;;4988764;28;20030;-86
2023/12/19 06:22:26;;;;;;;10.57;5.93;;;-1.70;99.90;;;;;;5006298;28;20632;-85
2023/12/19 06:24:51;;;;;;;10.77;6.23;;;-1.70;99.90;;;;;;5003529;28;20064;-86
2023/12/19 06:27:17;;;;;;;13.80;5.47;;;-1.70;99.90;;;;;;5008088;28;20030;-85
2023/12/19 06:29:43;;;;;;;9.20;5.10;;;-1.70;99.90;;;;;;5011707;28;20558;-87
2023/12/19 06:32:11;;;;;;;10.40;4.67;;;-1.60;99.90;;;;;;4996669;28;20042;-89
2023/12/19 06:34:37;;;;;;;7.77;4.00;;;-1.60;99.90;;;;;;5013093;28;20044;-87
2023/12/19 06:37:03;;;;;;;8.73;4.57;;;-1.60;99.90;;;;;;4992877;28;21656;-87
2023/12/19 06:39:29;;;;;;;6.57;3.80;;;-1.60;99.90;;;;;;5007079;28;20097;-86
2023/12/19 06:41:54;;;;;;;6.07;3.97;;;-1.50;99.90;;;;;;5001803;28;20061;-87
2023/12/19 06:44:20;;;;;;;8.57;4.20;;;-1.50;99.90;;;;;;5006865;28;20061;-88
2023/12/19 06:46:49;;;;;;;9.77;4.37;;;-1.50;99.90;;;;;;5006528;28;20041;-87
2023/12/19 06:49:18;;;;;;;6.37;3.57;;;-1.50;99.90;;;;;;4988985;28;20124;-87
2023/12/19 06:51:44;;;;;;;8.80;4.37;;;-1.50;99.90;;;;;;5003151;28;20377;-84
2023/12/19 06:54:09;;;;;;;7.80;3.57;;;-1.50;99.90;;;;;;5004338;28;20080;-84
2023/12/19 06:56:35;;;;;;;6.67;3.33;;;-1.50;99.90;;;;;;5003575;28;20025;-86
2023/12/19 06:59:01;;;;;;;7.77;3.43;;;-1.50;99.90;;;;;;5001900;28;20038;-84
2023/12/19 07:01:27;;;;;;;8.67;3.40;;;-1.50;99.90;;;;;;5005981;28;20034;-87
2023/12/19 07:03:53;;;;;;;6.73;3.47;;;-1.50;99.90;;;;;;5005191;28;20063;-85
2023/12/19 07:06:19;;;;;;;6.80;3.90;;;-1.40;99.90;;;;;;5006663;28;20034;-85
2023/12/19 07:08:45;;;;;;;12.40;4.97;;;-1.50;99.90;;;;;;4988003;28;20034;-86
2023/12/19 07:11:10;;;;;;;10.53;4.40;;;-1.50;99.90;;;;;;5006453;28;20345;-84
2023/12/19 07:13:36;;;;;;;7.13;3.90;;;-1.50;99.90;;;;;;5004934;28;20428;-84
2023/12/19 07:16:06;;;;;;;8.47;4.50;;;-1.50;99.90;;;;;;5003873;28;20038;-86
2023/12/19 07:18:31;;;;;;;8.37;4.77;;;-1.50;99.90;;;;;;4984625;28;20029;-84
2023/12/19 07:20:57;;;;;;;6.77;4.43;;;-1.50;99.90;;;;;;5004275;28;20026;-86
2023/12/19 07:23:23;;;;;;;6.63;4.20;;;-1.50;99.90;;;;;;5004729;28;20113;-84
2023/12/19 07:25:48;;;;;;;7.73;3.77;;;-1.50;99.90;;;;;;5000806;28;20119;-85
2023/12/19 07:28:16;;;;;;;12.87;4.17;;;-1.50;99.90;;;;;;5003714;28;20084;-84
2023/12/19 07:30:42;;;;;;;15.27;3.77;;;-1.50;99.90;;;;;;5003651;28;20057;-84
2023/12/19 07:33:08;;;;;;;11.40;3.97;;;-1.40;99.90;;;;;;5009115;28;20057;-85
2023/12/19 07:35:33;;;;;;;8.77;3.97;;;-1.40;99.90;;;;;;5004712;28;20036;-90
2023/12/19 07:37:59;;;;;;;6.97;4.47;;;-1.40;99.90;;;;;;5005699;28;20042;-86
2023/12/19 07:40:25;;;;;;;8.40;3.90;;;-1.40;99.90;;;;;;5005086;28;20081;-90
2023/12/19 07:42:51;;;;;;;8.87;3.83;;;-1.40;99.90;;;;;;5004301;28;20064;-85
2023/12/19 07:45:17;;;;;;;6.17;3.13;;;-1.30;99.90;;;;;;5003908;28;20034;-89
2023/12/19 07:47:44;;;;;;;9.27;3.40;;;-1.30;99.90;;;;;;5002145;28;20110;-84
2023/12/19 07:50:10;;;;;;;9.00;3.50;;;-1.30;99.90;;;;;;5000328;28;20033;-85
2023/12/19 07:52:37;;;;;;;10.33;3.40;;;-1.20;99.90;;;;;;4999508;28;20810;-84
2023/12/19 07:55:09;;;;;;;10.40;3.40;;;-1.20;99.90;;;;;;4999461;28;20026;-89
2023/12/19 07:57:37;;;;;;;7.23;3.33;;;-1.20;99.90;;;;;;5002112;28;20037;-84
2023/12/19 08:00:03;;;;;;;6.63;3.07;;;-1.20;99.90;;;;;;5001928;28;20121;-88
2023/12/19 08:02:29;;;;;;;4.87;3.30;;;-1.10;99.90;;;;;;4999262;28;20072;-87
2023/12/19 08:04:54;;;;;;;8.60;4.20;;;-1.10;99.90;;;;;;5000744;28;20064;-89
2023/12/19 08:07:20;;;;;;;11.97;4.57;;;-1.10;99.90;;;;;;5000676;28;20034;-87
2023/12/19 08:09:45;;;;;;;9.60;4.50;;;-1.10;99.90;;;;;;4982253;28;20504;-84
2023/12/19 08:12:11;;;;;;;12.43;4.83;;;-1.00;99.90;;;;;;4999552;28;20045;-84
2023/12/19 08:14:36;;;;;;;9.60;4.73;;;-1.00;99.90;;;;;;5000764;28;20049;-84
2023/12/19 08:17:02;;;;;;;9.53;4.93;;;-0.90;99.90;;;;;;5001029;28;20080;-85
2023/12/19 08:19:28;;;;;;;7.57;3.83;;;-0.80;99.90;;;;;;5000686;28;20037;-86
2023/12/19 08:21:54;;;;;;;7.63;4.00;;;-0.80;99.90;;;;;;5000175;28;21071;-85
2023/12/19 08:24:21;;;;;;;9.60;4.43;;;-0.70;99.90;;;;;;5000622;28;20037;-86
2023/12/19 08:26:49;;;;;;;6.53;3.57;;;-0.70;99.90;;;;;;5000833;28;20079;-85
2023/12/19 08:29:15;;;;;;;7.70;4.70;;;-0.70;99.90;;;;;;5000665;28;20026;-84
2023/12/19 08:31:40;;;;;;;9.97;4.90;;;-0.60;99.90;;;;;;5000457;28;20393;-84
2023/12/19 08:34:06;;;;;;;9.40;5.00;;;-0.40;99.90;;;;;;4999615;28;20105;-84
2023/12/19 08:36:32;;;;;;;10.80;4.80;;;-0.30;99.90;;;;;;5000022;28;20092;-84
2023/12/19 08:38:59;;;;;;;8.83;4.33;;;-0.20;99.90;;;;;;5000306;28;20030;-86
2023/12/19 08:41:24;;;;;;;11.00;4.17;;;-0.10;99.90;;;;;;5000876;28;20080;-86
2023/12/19 08:43:50;;;;;;;10.87;4.20;;;0.00;99.90;;;;;;4997024;28;20037;-85
2023/12/19 08:46:19;;;;;;;7.10;3.83;;;0.20;99.90;;;;;;5000004;28;20035;-84
2023/12/19 08:48:49;;;;;;;7.50;3.77;;;0.30;99.90;;;;;;4998838;28;20029;-85
2023/12/19 08:51:15;;;;;;;6.60;3.53;;;0.40;99.90;;;;;;4982593;28;21636;-84
2023/12/19 08:53:41;;;;;;;8.90;3.60;;;0.50;99.90;;;;;;4997336;28;20111;-84
2023/12/19 08:56:07;;;;;;;8.40;3.70;;;0.60;99.90;;;;;;4997321;28;20040;-84
2023/12/19 08:58:32;;;;;;;10.27;4.50;;;0.60;99.90;;;;;;4997202;28;20045;-86
2023/12/19 09:00:58;;;;;;;11.07;4.00;;;0.70;99.90;;;;;;5001394;28;20025;-86
2023/12/19 09:03:23;;;;;;;8.07;4.70;;;0.80;99.90;;;;;;4998662;28;20053;-88
2023/12/19 09:05:52;;;;;;;10.90;4.47;;;0.80;99.90;;;;;;4996922;28;20039;-86
2023/12/19 09:08:17;;;;;;;17.37;5.50;;;0.90;99.90;;;;;;5001878;28;20034;-85
2023/12/19 09:10:43;;;;;;;10.27;5.30;;;1.00;99.90;;;;;;5000945;28;20045;-86
2023/12/19 09:13:09;;;;;;;11.23;4.90;;;1.10;99.90;;;;;;5001695;28;20026;-86
2023/12/19 09:15:35;;;;;;;7.87;4.27;;;1.10;99.90;;;;;;4982962;28;20113;-84
2023/12/19 09:18:03;;;;;;;11.07;3.90;;;1.20;99.90;;;;;;5001982;28;20022;-84
2023/12/19 09:20:29;;;;;;;6.60;4.03;;;1.30;99.90;;;;;;5000759;28;20098;-86
2023/12/19 09:22:54;;;;;;;8.30;4.33;;;1.30;99.90;;;;;;5002589;28;20113;-85
2023/12/19 09:25:20;;;;;;;9.53;4.80;;;1.30;99.90;;;;;;5002458;28;20090;-85
2023/12/19 09:27:46;;;;;;;7.97;4.63;;;1.40;99.90;;;;;;4982857;28;20029;-85
2023/12/19 09:30:12;;;;;;;8.90;4.10;;;1.50;99.90;;;;;;5000857;28;20045;-84
2023/12/19 09:32:39;;;;;;;10.00;5.60;;;1.50;99.90;;;;;;4999930;28;20396;-85
2023/12/19 09:35:06;;;;;;;11.50;5.80;;;1.70;99.90;;;;;;4999821;28;20030;-85
2023/12/19 09:37:31;;;;;;;11.80;6.23;;;1.90;99.90;;;;;;4982992;28;20038;-85
2023/12/19 09:39:57;;;;;;;11.10;6.53;;;2.00;99.90;;;;;;4982308;28;20030;-85
2023/12/19 09:42:23;;;;;;;14.37;7.03;;;2.10;99.90;;;;;;5000184;28;20034;-84
2023/12/19 09:44:48;;;;;;;12.70;6.80;;;2.10;99.90;;;;;;4999824;28;20125;-84
2023/12/19 09:47:26;;;;;;;14.47;6.83;;;2.20;99.90;;;;;;5000142;28;20410;-85
2023/12/19 09:49:57;;;;;;;14.80;7.50;;;2.30;99.90;;;;;;5000327;28;20041;-86
2023/12/19 09:52:24;;;;;;;18.63;7.97;;;2.50;99.90;;;;;;5000439;28;20050;-84
2023/12/19 09:54:52;;;;;;;14.27;8.03;;;2.60;99.90;;;;;;5001441;28;20029;-88
2023/12/19 09:57:19;;;;;;;17.37;8.57;;;2.70;99.90;;;;;;4999266;28;20485;-86
2023/12/19 09:59:46;;;;;;;14.00;7.67;;;2.80;99.90;;;;;;5000153;28;20118;-84
2023/12/19 10:02:14;;;;;;;13.93;7.37;;;3.00;99.90;;;;;;5001148;28;20040;-84
2023/12/19 10:04:40;;;;;;;19.90;7.87;;;3.10;99.90;;;;;;5003196;28;20493;-85
2023/12/19 10:07:06;;;;;;;14.13;7.83;;;3.20;99.90;;;;;;5002995;28;20033;-85
2023/12/19 10:09:31;;;;;;;14.67;7.10;;;3.40;99.90;;;;;;5004641;28;20029;-84
2023/12/19 10:12:09;;;;;;;17.23;7.27;;;3.60;99.90;;;;;;5003711;28;20069;-85
2023/12/19 10:14:35;;;;;;;15.93;6.87;;;3.90;99.90;;;;;;5003407;28;20033;-84
2023/12/19 10:17:04;;;;;;;15.03;6.90;;;4.20;99.90;;;;;;5003546;28;20026;-84
2023/12/19 10:19:30;;;;;;;12.47;6.50;;;4.50;99.90;;;;;;5003751;28;20033;-84
2023/12/19 10:22:12;;;;;;;13.30;7.00;;;4.70;99.90;;;;;;5003754;28;20057;-86
2023/12/19 10:24:38;;;;;;;14.87;6.43;;;4.90;99.90;;;;;;5002363;28;20164;-84
2023/12/19 10:27:08;;;;;;;10.50;6.53;;;5.00;99.90;;;;;;5001668;28;20451;-87
2023/12/19 10:29:38;;;;;;;11.70;5.97;;;5.00;99.90;;;;;;5003814;28;20674;-86
2023/12/19 10:32:15;;;;;;;10.80;6.20;;;5.10;99.90;;;;;;5003559;28;20041;-86
2023/12/19 10:34:41;;;;;;;15.47;6.43;;;5.10;99.90;;;;;;5002786;28;20741;-84
2023/12/19 10:37:20;;;;;;;11.50;5.93;;;5.10;99.90;;;;;;5003935;28;20030;-85
2023/12/19 10:39:47;;;;;;;11.20;5.10;;;5.20;99.90;;;;;;5004516;28;20026;-86
2023/12/19 10:42:13;;;;;;;7.33;4.37;;;5.30;99.90;;;;;;5003288;28;20033;-85
2023/12/19 10:44:39;;;;;;;14.27;3.27;;;5.40;99.90;;;;;;5001874;28;20555;-85
2023/12/19 10:47:07;;;;;;;5.57;2.90;;;5.60;99.90;;;;;;5002819;28;21405;-84
2023/12/19 10:49:33;;;;;;;5.87;2.63;;;5.90;99.90;;;;;;5002511;28;20119;-84
2023/12/19 10:52:06;;;;;;;5.30;1.80;;;6.20;99.90;;;;;;5000205;28;20069;-85
2023/12/19 10:54:35;;;;;;;6.37;1.50;;;6.50;99.90;;;;;;5003234;28;20382;-85
2023/12/19 10:57:05;;;;;;;1.37;1.10;;;6.80;99.90;;;;;;5005650;28;20037;-85
2023/12/19 10:59:54;;;;;;;2.30;1.30;;;7.00;99.90;;;;;;5004588;28;20034;-85
2023/12/19 11:02:40;;;;;;;1.93;1.10;;;7.20;99.90;;;;;;5007368;28;20042;-85
2023/12/19 11:05:11;;;;;;;1.60;1.10;;;7.40;99.90;;;;;;5005312;28;20030;-85
2023/12/19 11:07:38;;;;;;;10.90;1.30;;;7.70;99.90;;;;;;5006770;28;20025;-84
2023/12/19 11:10:08;;;;;;;6.33;1.10;;;7.90;99.90;;;;;;5005104;28;20037;-87
2023/12/19 11:12:35;;;;;;;8.33;1.30;;;8.00;99.90;;;;;;4988298;28;20038;-84
2023/12/19 11:15:03;;;;;;;6.43;1.43;;;8.10;99.90;;;;;;5002461;28;20018;-87
2023/12/19 11:17:50;;;;;;;4.03;1.10;;;8.20;99.90;;;;;;5003976;28;20026;-85
2023/12/19 11:20:25;;;;;;;2.30;1.20;;;8.40;99.90;;;;;;5005939;28;20036;-85
2023/12/19 11:23:07;;;;;;;2.83;1.10;;;8.60;99.90;;;;;;5003406;28;20026;-85
2023/12/19 11:25:42;;;;;;;3.87;1.07;;;8.70;99.90;;;;;;5003851;28;20034;-87
2023/12/19 11:28:09;;;;;;;1.83;1.00;;;8.80;99.90;;;;;;5003933;28;20029;-84
2023/12/19 11:30:37;;;;;;;2.93;0.90;;;8.90;99.90;;;;;;5003527;28;20037;-85
2023/12/19 11:33:12;;;;;;;1.90;0.90;;;9.00;99.90;;;;;;5003469;28;20045;-85
2023/12/19 11:35:38;;;;;;;3.23;1.10;;;9.20;99.90;;;;;;5003474;28;20121;-85
2023/12/19 11:38:13;;;;;;;3.67;1.20;;;9.20;99.90;;;;;;5003793;28;20125;-84
2023/12/19 11:40:45;;;;;;;2.95;1.00;;;9.30;99.90;;;;;;5002680;28;20060;-86
2023/12/19 11:43:31;;;;;;;1.10;0.90;;;9.40;99.90;;;;;;5002725;28;20037;-85
2023/12/19 11:46:03;;;;;;;2.77;0.97;;;9.50;99.90;;;;;;5001557;28;20089;-84
2023/12/19 11:48:46;;;;;;;4.60;1.13;;;9.60;99.90;;;;;;4998369;28;20045;-86
2023/12/19 11:51:14;;;;;;;1.60;0.97;;;9.60;99.90;;;;;;5002475;28;20034;-85
2023/12/19 11:53:41;;;;;;;2.50;0.90;;;9.70;99.90;;;;;;5001048;28;20112;-85
2023/12/19 11:56:12;;;;;;;2.67;1.00;;;9.70;99.90;;;;;;4999145;28;20103;-85
2023/12/19 11:58:45;;;;;;;2.33;1.13;;;9.80;99.90;;;;;;4983346;28;20022;-85
2023/12/19 12:01:10;;;;;;;4.10;1.33;;;9.90;99.90;;;;;;5001335;28;20057;-85
2023/12/19 12:03:37;;;;;;;2.10;0.93;;;10.00;99.90;;;;;;5002794;28;20076;-86
2023/12/19 12:06:03;;;;;;;3.03;1.27;;;10.00;99.90;;;;;;5002647;28;21111;-84
2023/12/19 12:08:29;;;;;;;2.70;1.00;;;10.10;99.90;;;;;;4999082;28;21146;-85
2023/12/19 12:11:04;;;;;;;2.57;0.87;;;10.20;99.90;;;;;;4980020;28;20030;-85
2023/12/19 12:13:31;;;;;;;2.23;0.73;;;10.40;99.90;;;;;;4999036;28;20397;-87
2023/12/19 12:15:58;;;;;;;3.30;0.90;;;10.40;99.90;;;;;;5000692;28;20816;-85
2023/12/19 12:18:27;;;;;;;1.33;0.70;;;10.60;99.90;;;;;;5000236;28;20037;-87
2023/12/19 12:21:10;;;;;;;3.10;0.90;;;10.70;99.90;;;;;;4999916;28;20054;-85
2023/12/19 12:23:36;;;;;;;1.20;0.80;;;10.90;99.90;;;;;;4998562;28;21458;-88
2023/12/19 12:26:02;;;;;;;1.30;0.70;;;11.00;99.90;;;;;;4998279;28;20045;-85
2023/12/19 12:28:28;;;;;;;7.03;1.00;;;11.00;99.90;;;;;;4998363;28;20041;-86
2023/12/19 12:30:57;;;;;;;2.53;0.90;;;11.10;99.90;;;;;;4998825;28;20034;-87
2023/12/19 12:33:27;;;;;;;2.67;0.90;;;11.10;99.90;;;;;;4997366;28;20037;-85
2023/12/19 12:35:54;;;;;;;2.72;0.93;;;11.20;99.90;;;;;;4998375;28;20034;-84
2023/12/19 12:38:22;;;;;;;1.52;0.80;;;11.20;99.90;;;;;;4996830;28;20065;-85
2023/12/19 12:40:54;;;;;;;1.27;0.70;;;11.30;99.90;;;;;;4998524;28;20717;-82
2023/12/19 12:43:39;;;;;;;3.50;1.00;;;11.40;99.90;;;;;;4995380;28;20512;-85